createdAt,value
2023-03-31T00:02:41.970Z,11.62
2023-03-31T00:05:48.140Z,11.55
2023-03-31T00:08:52.260Z,11.62
2023-03-31T00:11:55.338Z,11.57
2023-03-31T00:14:57.625Z,11.58
2023-03-31T00:18:00.674Z,11.59
2023-03-31T00:21:25.204Z,11.65
2023-03-31T00:24:32.656Z,11.61
2023-03-31T00:27:40.138Z,11.68
2023-03-31T00:30:44.732Z,11.62
2023-03-31T00:33:47.016Z,11.59
2023-03-31T00:36:56.560Z,11.57
2023-03-31T00:39:59.805Z,11.57
2023-03-31T00:43:03.380Z,11.60
2023-03-31T00:46:36.379Z,11.58
2023-03-31T00:49:45.661Z,11.49
2023-03-31T00:52:54.932Z,11.47
2023-03-31T00:56:02.351Z,11.37
2023-03-31T00:59:12.190Z,11.29
2023-03-31T01:02:15.860Z,11.31
2023-03-31T01:05:38.125Z,11.38
2023-03-31T01:08:44.601Z,11.40
2023-03-31T01:11:48.013Z,11.39
2023-03-31T01:14:55.515Z,11.37
2023-03-31T01:17:58.289Z,11.34
2023-03-31T01:21:19.394Z,11.34
2023-03-31T01:25:01.625Z,11.29
2023-03-31T01:28:36.096Z,11.22
2023-03-31T01:31:47.183Z,11.19
2023-03-31T01:34:52.335Z,11.19
2023-03-31T01:38:18.558Z,11.18
2023-03-31T01:41:32.183Z,11.14
2023-03-31T01:44:34.817Z,11.14
2023-03-31T01:47:49.106Z,11.17
2023-03-31T01:51:02.140Z,11.17
2023-03-31T01:54:27.940Z,11.11
2023-03-31T01:57:39.461Z,11.08
2023-03-31T02:00:52.076Z,11.04
2023-03-31T02:04:25.787Z,11.00
2023-03-31T02:07:35.137Z,10.98
2023-03-31T02:10:42.917Z,10.93
2023-03-31T02:13:48.660Z,10.87
2023-03-31T02:16:58.541Z,10.82
2023-03-31T02:20:11.318Z,10.72
2023-03-31T02:23:19.998Z,10.68
2023-03-31T02:26:27.474Z,10.51
2023-03-31T02:29:34.715Z,10.54
2023-03-31T02:32:40.864Z,10.55
2023-03-31T02:35:43.326Z,10.49
2023-03-31T02:39:13.060Z,10.45
2023-03-31T02:42:21.039Z,10.43
2023-03-31T02:45:39.627Z,10.42
2023-03-31T02:48:50.740Z,10.34
2023-03-31T02:52:14.189Z,10.44
2023-03-31T02:55:51.603Z,10.41
2023-03-31T02:59:16.760Z,10.44
2023-03-31T03:02:43.731Z,10.46
2023-03-31T03:05:50.246Z,10.38
2023-03-31T03:09:42.348Z,10.41
2023-03-31T03:12:56.985Z,10.32
2023-03-31T03:16:08.499Z,10.30
2023-03-31T03:19:17.989Z,10.23
2023-03-31T03:22:25.266Z,10.32
2023-03-31T03:25:27.789Z,10.34
2023-03-31T03:28:30.051Z,10.31
2023-03-31T03:31:33.745Z,10.44
2023-03-31T03:34:40.793Z,10.45
2023-03-31T03:37:45.508Z,10.47
2023-03-31T03:40:52.632Z,10.44
2023-03-31T03:43:54.987Z,10.53
2023-03-31T03:46:57.280Z,10.50
2023-03-31T03:50:01.977Z,10.57
2023-03-31T03:53:09.956Z,10.56
2023-03-31T03:56:15.538Z,10.49
2023-03-31T03:59:17.823Z,10.61
2023-03-31T04:02:22.576Z,10.60
2023-03-31T04:05:25.433Z,10.59
2023-03-31T04:08:27.825Z,10.59
2023-03-31T04:11:30.414Z,10.67
2023-03-31T04:14:35.371Z,10.68
2023-03-31T04:17:37.874Z,10.85
2023-03-31T04:20:45.030Z,10.86
2023-03-31T04:23:47.545Z,10.81
2023-03-31T04:26:52.640Z,10.76
2023-03-31T04:29:57.898Z,10.74
2023-03-31T04:33:06.691Z,10.76
2023-03-31T04:36:18.940Z,10.77
2023-03-31T04:39:26.919Z,10.79
2023-03-31T04:42:31.578Z,10.83
2023-03-31T04:45:36.390Z,10.84
2023-03-31T04:48:43.563Z,10.84
2023-03-31T04:51:46.082Z,10.87
2023-03-31T04:54:50.541Z,10.91
2023-03-31T04:57:53.302Z,10.96
2023-03-31T05:00:55.577Z,10.92
2023-03-31T05:04:00.181Z,10.99
2023-03-31T05:07:05.192Z,11.02
2023-03-31T05:10:08.040Z,11.07
2023-03-31T05:13:12.544Z,11.10
2023-03-31T05:16:14.971Z,11.19
2023-03-31T05:19:18.383Z,11.37
2023-03-31T05:22:21.382Z,11.55
2023-03-31T05:25:24.163Z,11.73
2023-03-31T05:28:26.428Z,11.88
2023-03-31T05:31:28.706Z,12.14
2023-03-31T05:34:36.494Z,12.35
2023-03-31T05:37:38.777Z,12.75
2023-03-31T05:40:42.051Z,13.11
2023-03-31T05:43:44.363Z,13.48
2023-03-31T05:46:47.046Z,13.82
2023-03-31T05:49:52.022Z,14.11
2023-03-31T05:52:54.315Z,14.39
2023-03-31T05:56:01.981Z,14.79
2023-03-31T05:59:09.039Z,15.22
2023-03-31T06:02:17.142Z,15.55
2023-03-31T06:05:23.108Z,15.58
2023-03-31T06:08:28.036Z,15.64
2023-03-31T06:11:33.534Z,15.16
2023-03-31T06:14:40.298Z,15.09
2023-03-31T06:17:42.631Z,14.82
2023-03-31T06:20:44.968Z,14.94
2023-03-31T06:23:48.257Z,15.26
2023-03-31T06:26:53.954Z,15.45
2023-03-31T06:29:56.550Z,15.56
2023-03-31T06:32:58.949Z,15.99
2023-03-31T06:36:04.248Z,16.50
2023-03-31T06:39:08.910Z,17.05
2023-03-31T06:42:15.950Z,17.30
2023-03-31T06:45:22.156Z,17.53
2023-03-31T06:48:27.734Z,17.46
2023-03-31T06:51:31.831Z,17.81
2023-03-31T06:54:35.145Z,17.59
2023-03-31T06:57:42.422Z,17.94
2023-03-31T07:00:47.279Z,17.59
2023-03-31T07:03:52.217Z,17.49
2023-03-31T07:06:54.486Z,17.99
2023-03-31T07:09:57.461Z,18.29
2023-03-31T07:12:59.965Z,18.82
2023-03-31T07:16:05.313Z,19.05
2023-03-31T07:19:12.735Z,19.36
2023-03-31T07:22:15.885Z,19.78
2023-03-31T07:25:20.777Z,20.10
2023-03-31T07:28:22.999Z,20.19
2023-03-31T07:31:27.786Z,20.45
2023-03-31T07:34:30.136Z,21.08
2023-03-31T07:37:36.650Z,21.10
2023-03-31T07:40:40.142Z,21.51
2023-03-31T07:43:45.553Z,21.78
2023-03-31T07:46:47.801Z,21.99
2023-03-31T07:49:52.840Z,22.12
2023-03-31T07:53:02.204Z,22.41
2023-03-31T07:56:07.401Z,22.13
2023-03-31T07:59:10.119Z,22.01
2023-03-31T08:02:14.184Z,22.72
2023-03-31T08:05:21.506Z,22.83
2023-03-31T08:08:23.993Z,22.72
2023-03-31T08:11:26.513Z,22.88
2023-03-31T08:14:40.647Z,23.28
2023-03-31T08:17:46.423Z,22.67
2023-03-31T08:20:50.004Z,22.86
2023-03-31T08:23:56.992Z,23.38
2023-03-31T08:26:59.383Z,23.75
2023-03-31T08:30:05.134Z,23.60
2023-03-31T08:33:13.057Z,23.88
2023-03-31T08:36:15.657Z,24.08
2023-03-31T08:39:18.358Z,24.87
2023-03-31T08:42:27.255Z,24.99
2023-03-31T08:45:56.411Z,24.38
2023-03-31T08:49:02.741Z,24.76
2023-03-31T08:52:12.482Z,25.05
2023-03-31T08:55:24.301Z,25.22
2023-03-31T08:58:41.299Z,25.03
2023-03-31T09:01:57.116Z,25.27
2023-03-31T09:05:11.785Z,25.33
2023-03-31T09:08:37.289Z,24.87
2023-03-31T09:11:56.857Z,25.14
2023-03-31T09:15:05.362Z,25.38
2023-03-31T09:18:17.165Z,26.05
2023-03-31T09:21:40.394Z,25.82
2023-03-31T09:24:49.334Z,25.67
2023-03-31T09:27:54.348Z,26.34
2023-03-31T09:30:57.031Z,25.91
2023-03-31T09:34:16.248Z,25.28
2023-03-31T09:37:18.696Z,24.96
2023-03-31T09:40:23.980Z,25.44
2023-03-31T09:43:29.692Z,23.88
2023-03-31T09:46:38.570Z,23.06
2023-03-31T09:49:54.093Z,22.60
2023-03-31T09:52:59.606Z,23.95
2023-03-31T09:56:03.154Z,23.68
2023-03-31T09:59:07.637Z,23.44
2023-03-31T10:02:35.805Z,23.75
2023-03-31T10:05:41.334Z,24.92
2023-03-31T10:09:05.525Z,25.89
2023-03-31T10:12:24.465Z,25.67
2023-03-31T10:15:30.784Z,26.30
2023-03-31T10:18:41.086Z,26.06
2023-03-31T10:21:48.230Z,25.81
2023-03-31T10:24:52.156Z,25.39
2023-03-31T10:28:00.297Z,24.54
2023-03-31T10:31:06.630Z,23.91
2023-03-31T10:34:17.071Z,22.79
2023-03-31T10:37:28.522Z,22.26
2023-03-31T10:40:35.674Z,21.89
2023-03-31T10:43:51.620Z,21.70
2023-03-31T10:46:54.028Z,21.11
2023-03-31T10:49:57.926Z,20.82
2023-03-31T10:53:07.413Z,20.59
2023-03-31T10:56:19.141Z,20.44
2023-03-31T10:59:59.500Z,20.52
2023-03-31T11:03:23.060Z,20.47
2023-03-31T11:06:27.952Z,20.10
2023-03-31T11:10:00.868Z,19.93
2023-03-31T11:13:33.689Z,19.69
2023-03-31T11:17:01.071Z,19.36
2023-03-31T11:20:12.891Z,19.43
2023-03-31T11:23:56.994Z,19.89
2023-03-31T11:27:14.232Z,20.06
2023-03-31T11:30:27.024Z,20.18
2023-03-31T11:33:34.854Z,19.86
2023-03-31T11:36:45.680Z,19.94
2023-03-31T11:39:56.622Z,19.97
2023-03-31T11:43:17.017Z,20.16
2023-03-31T11:46:24.031Z,20.22
2023-03-31T11:49:38.236Z,20.43
2023-03-31T11:52:45.428Z,20.51
2023-03-31T11:55:51.966Z,20.23
2023-03-31T11:59:00.716Z,20.14
2023-03-31T12:02:21.367Z,20.09
2023-03-31T12:05:30.713Z,20.07
2023-03-31T12:08:41.830Z,19.95
2023-03-31T12:11:52.065Z,19.96
2023-03-31T12:15:25.469Z,19.83
2023-03-31T12:18:31.751Z,19.88
2023-03-31T12:21:38.267Z,20.02
2023-03-31T12:24:42.964Z,20.24
2023-03-31T12:27:49.928Z,20.17
2023-03-31T12:30:53.824Z,20.17
2023-03-31T12:34:05.432Z,20.22
2023-03-31T12:37:19.966Z,20.16
2023-03-31T12:40:40.359Z,20.27
2023-03-31T12:43:54.726Z,20.18
2023-03-31T12:47:23.382Z,20.11
2023-03-31T12:50:41.135Z,20.00
2023-03-31T12:54:04.052Z,20.14
2023-03-31T12:57:09.355Z,20.07
2023-03-31T13:00:21.329Z,20.06
2023-03-31T13:03:35.391Z,20.06
2023-03-31T13:06:38.974Z,20.01
2023-03-31T13:09:52.250Z,20.06
2023-03-31T13:13:00.613Z,19.93
2023-03-31T13:16:03.191Z,20.00
2023-03-31T13:19:06.215Z,19.88
2023-03-31T13:22:35.856Z,19.85
2023-03-31T13:26:02.133Z,19.97
2023-03-31T13:29:22.557Z,19.97
2023-03-31T13:32:26.239Z,19.81
2023-03-31T13:35:33.998Z,19.65
2023-03-31T13:38:58.340Z,19.57
2023-03-31T13:42:28.041Z,19.64
2023-03-31T13:45:49.072Z,19.60
2023-03-31T13:49:10.133Z,19.77
2023-03-31T13:52:13.582Z,19.69
2023-03-31T13:55:40.794Z,19.63
2023-03-31T13:59:12.100Z,19.55
2023-03-31T14:02:34.755Z,19.34
2023-03-31T14:05:45.746Z,19.35
2023-03-31T14:08:57.862Z,19.44
2023-03-31T14:12:18.972Z,19.56
2023-03-31T14:15:24.221Z,19.58
2023-03-31T14:18:37.009Z,19.31
2023-03-31T14:22:02.447Z,19.39
2023-03-31T14:25:29.648Z,19.37
2023-03-31T14:28:52.537Z,19.46
2023-03-31T14:32:06.762Z,19.48
2023-03-31T14:35:38.877Z,19.60
2023-03-31T14:38:41.693Z,19.57
2023-03-31T14:41:49.420Z,19.52
2023-03-31T14:44:56.381Z,19.45
2023-03-31T14:48:16.409Z,19.31
2023-03-31T14:51:26.988Z,19.05
2023-03-31T14:54:37.239Z,19.05
2023-03-31T14:57:46.079Z,19.05
2023-03-31T15:00:52.337Z,19.01
2023-03-31T15:03:55.813Z,18.95
2023-03-31T15:07:06.130Z,18.93
2023-03-31T15:10:08.870Z,18.93
2023-03-31T15:13:19.916Z,18.75
2023-03-31T15:16:30.144Z,18.64
2023-03-31T15:19:38.098Z,18.57
2023-03-31T15:22:40.935Z,18.61
2023-03-31T15:25:44.335Z,18.64
2023-03-31T15:28:53.526Z,18.48
2023-03-31T15:31:59.736Z,18.38
2023-03-31T15:35:29.742Z,18.39
2023-03-31T15:38:37.470Z,18.17
2023-03-31T15:41:39.821Z,18.06
2023-03-31T15:44:47.027Z,18.06
2023-03-31T15:47:59.440Z,17.93
2023-03-31T15:51:14.554Z,17.87
2023-03-31T15:54:49.412Z,17.78
2023-03-31T15:57:57.567Z,17.73
2023-03-31T16:01:08.978Z,17.58
2023-03-31T16:04:15.438Z,17.42
2023-03-31T16:07:31.684Z,17.41
2023-03-31T16:10:35.347Z,17.34
2023-03-31T16:13:42.098Z,17.34
2023-03-31T16:16:54.535Z,17.16
2023-03-31T16:20:07.459Z,17.31
2023-03-31T16:23:32.788Z,17.17
2023-03-31T16:26:37.397Z,17.05
2023-03-31T16:29:39.843Z,16.97
2023-03-31T16:33:08.643Z,16.78
2023-03-31T16:36:16.077Z,16.76
2023-03-31T16:39:18.501Z,16.65
2023-03-31T16:42:21.577Z,16.66
2023-03-31T16:45:27.270Z,16.59
2023-03-31T16:48:33.706Z,16.43
2023-03-31T16:51:38.370Z,16.36
2023-03-31T16:54:42.958Z,16.37
2023-03-31T16:57:45.218Z,16.37
2023-03-31T17:00:52.937Z,16.33
2023-03-31T17:03:57.570Z,16.37
2023-03-31T17:07:04.471Z,16.31
2023-03-31T17:10:07.592Z,16.32
2023-03-31T17:13:12.479Z,16.15
2023-03-31T17:16:24.256Z,16.04
2023-03-31T17:19:29.183Z,16.03
2023-03-31T17:22:33.656Z,16.01
2023-03-31T17:25:40.847Z,16.00
2023-03-31T17:28:45.723Z,15.97
2023-03-31T17:31:48.050Z,16.05
2023-03-31T17:34:50.559Z,15.93
2023-03-31T17:37:55.696Z,15.93
2023-03-31T17:41:12.694Z,16.03
2023-03-31T17:44:17.249Z,16.00
2023-03-31T17:47:24.321Z,15.93
2023-03-31T17:50:27.264Z,15.99
2023-03-31T17:53:32.686Z,15.93
2023-03-31T17:56:39.527Z,15.85
2023-03-31T17:59:41.866Z,15.79
2023-03-31T18:02:46.869Z,15.77
2023-03-31T18:05:51.357Z,15.77
2023-03-31T18:09:01.337Z,15.67
2023-03-31T18:12:04.043Z,15.66
2023-03-31T18:15:10.917Z,15.59
2023-03-31T18:18:15.750Z,15.55
2023-03-31T18:21:18.117Z,15.48
2023-03-31T18:24:25.181Z,15.43
2023-03-31T18:27:27.520Z,15.45
2023-03-31T18:30:32.335Z,15.47
2023-03-31T18:33:35.751Z,15.34
2023-03-31T18:36:38.221Z,15.30
2023-03-31T18:39:40.626Z,15.29
2023-03-31T18:42:42.995Z,15.24
2023-03-31T18:45:52.410Z,15.24
2023-03-31T18:48:56.884Z,15.23
2023-03-31T18:51:59.316Z,15.24
2023-03-31T18:55:02.791Z,15.29
2023-03-31T18:58:05.425Z,15.18
2023-03-31T19:01:07.829Z,15.02
2023-03-31T19:04:12.391Z,15.01
2023-03-31T19:07:17.693Z,14.94
2023-03-31T19:10:20.073Z,14.90
2023-03-31T19:13:25.144Z,14.95
2023-03-31T19:16:29.929Z,14.86
2023-03-31T19:19:32.519Z,14.74
2023-03-31T19:22:37.074Z,14.72
2023-03-31T19:25:44.888Z,14.79
2023-03-31T19:28:48.364Z,14.77
2023-03-31T19:31:53.248Z,14.62
2023-03-31T19:34:55.927Z,14.58
2023-03-31T19:38:00.710Z,14.41
2023-03-31T19:41:04.934Z,14.29
2023-03-31T19:44:07.208Z,13.98
2023-03-31T19:47:11.721Z,13.81
2023-03-31T19:50:17.085Z,13.79
2023-03-31T19:53:20.766Z,13.72
2023-03-31T19:56:27.032Z,13.63
2023-03-31T19:59:29.418Z,13.65
2023-03-31T20:02:37.217Z,13.55
2023-03-31T20:05:43.897Z,13.57
2023-03-31T20:08:52.031Z,13.45
2023-03-31T20:11:58.800Z,13.38
2023-03-31T20:15:01.154Z,13.26
2023-03-31T20:18:03.548Z,13.20
2023-03-31T20:21:16.607Z,12.92
2023-03-31T20:24:21.547Z,12.85
2023-03-31T20:27:26.464Z,12.91
2023-03-31T20:30:33.464Z,12.91
2023-03-31T20:33:36.416Z,12.88
2023-03-31T20:36:43.334Z,12.85
2023-03-31T20:39:48.495Z,12.88
2023-03-31T20:42:50.748Z,12.85
2023-03-31T20:46:04.377Z,12.93
2023-03-31T20:49:13.097Z,12.96
2023-03-31T20:52:15.513Z,13.10
2023-03-31T20:55:17.921Z,13.03
2023-03-31T20:58:21.338Z,12.99
2023-03-31T21:01:28.249Z,12.82
2023-03-31T21:04:30.624Z,12.88
2023-03-31T21:07:32.932Z,12.69
2023-03-31T21:10:46.572Z,12.80
2023-03-31T21:13:48.976Z,12.60
2023-03-31T21:16:51.307Z,12.69
2023-03-31T21:19:53.579Z,12.70
2023-03-31T21:22:58.462Z,12.72
2023-03-31T21:26:02.679Z,12.57
2023-03-31T21:29:07.311Z,12.53
2023-03-31T21:32:11.763Z,12.54
2023-03-31T21:35:17.298Z,12.62
2023-03-31T21:38:22.854Z,12.59
2023-03-31T21:41:28.180Z,12.56
2023-03-31T21:44:32.904Z,12.60
2023-03-31T21:47:38.530Z,12.63
2023-03-31T21:50:46.030Z,12.57
2023-03-31T21:53:49.770Z,12.58
2023-03-31T21:56:56.952Z,12.54
2023-03-31T21:59:59.284Z,12.45
2023-03-31T22:03:22.332Z,12.48
2023-03-31T22:06:26.619Z,12.40
2023-03-31T22:09:31.869Z,12.46
2023-03-31T22:12:36.766Z,12.36
2023-03-31T22:15:44.402Z,12.37
2023-03-31T22:18:47.698Z,12.22
2023-03-31T22:21:50.401Z,12.29
2023-03-31T22:24:52.704Z,12.25
2023-03-31T22:27:55.067Z,12.24
2023-03-31T22:30:59.687Z,12.30
2023-03-31T22:34:01.991Z,12.23
2023-03-31T22:37:06.748Z,12.14
2023-03-31T22:40:12.410Z,12.13
2023-03-31T22:43:14.691Z,12.20
2023-03-31T22:46:22.179Z,12.15
2023-03-31T22:49:26.693Z,12.11
2023-03-31T22:52:33.704Z,12.12
2023-03-31T22:55:42.337Z,12.08
2023-03-31T22:58:44.724Z,12.16
2023-03-31T23:01:54.845Z,12.01
2023-03-31T23:04:59.863Z,12.05
2023-03-31T23:08:04.401Z,11.99
2023-03-31T23:11:11.015Z,12.01
2023-03-31T23:14:16.506Z,11.98
2023-03-31T23:17:19.309Z,11.86
2023-03-31T23:20:22.825Z,11.82
2023-03-31T23:23:29.884Z,11.77
2023-03-31T23:26:34.161Z,11.68
2023-03-31T23:29:39.192Z,11.71
2023-03-31T23:32:41.680Z,11.64
2023-03-31T23:35:46.265Z,11.54
2023-03-31T23:38:49.932Z,11.52
2023-03-31T23:41:54.598Z,11.54
2023-03-31T23:44:59.585Z,11.76
2023-03-31T23:48:02.055Z,11.72
2023-03-31T23:51:05.936Z,11.66
2023-03-31T23:54:12.935Z,11.65
2023-03-31T23:57:15.382Z,11.54
